EDNY 200020Z AUTO VRB02KT 9999 FEW140/// 15/13 Q1024 EDNY 192350Z AUTO VRB02KT 9999 NCD 14/13 Q1024 EDNY 192320Z AUTO VRB02KT 9999 NCD 14/13 Q1024 EDNY 192250Z AUTO VRB02KT 9999 NCD 15/13 Q1024 EDNY 192220Z AUTO VRB02KT 9999 FEW130/// 15/13 Q1024 EDNY 192150Z AUTO 04003KT 330V060 9999 SCT130/// 16/13 Q1024 EDNY 192120Z AUTO VRB02KT 9999 BKN130/// 16/14 Q1024 EDNY 192050Z AUTO VRB01KT 9999 2400 FEW100/// SCT120/// 17/14 Q1024 EDNY 192020Z AUTO VRB02KT CAVOK 18/13 Q1023 EDNY 191950Z 08002KT CAVOK 20/14 Q1023 EDNY 191920Z 06003KT CAVOK 20/14 Q1023 EDNY 191850Z 20003KT 150V230 CAVOK 21/14 Q1023 EDNY 191820Z 18004KT 140V240 CAVOK 22/13 Q1023 EDNY 191750Z 23005KT CAVOK 21/14 Q1022 EDNY 191720Z 22005KT CAVOK 22/13 Q1022 EDNY 191650Z 19013KT CAVOK 23/12 Q1022 EDNY 191620Z 20013KT 9999 FEW057 23/12 Q1022 EDNY 191550Z 21013KT 9999 VCSH SCT079CB 24/12 Q1022 EDNY 191520Z 20008KT CAVOK 26/15 Q1022 EDNY 191450Z 21007KT 180V270 CAVOK 28/14 Q1021 EDNY 191420Z 24006KT 200V280 CAVOK 29/15 Q1021 EDNY 191350Z 23005KT 200V270 CAVOK 29/16 Q1021 EDNY 191320Z 21004KT 160V280 CAVOK 29/15 Q1021 EDNY 191250Z 25004KT 160V330 CAVOK 29/15 Q1021 EDNY 191220Z 25004KT 220V300 CAVOK 28/14 Q1022 EDNY 191150Z 21003KT 140V260 CAVOK 28/14 Q1022 EDNY 191120Z VRB02KT CAVOK 27/14 Q1022 EDNY 191050Z 24003KT 200V290 CAVOK 26/15 Q1023 EDNY 191020Z 23003KT 160V280 CAVOK 24/14 Q1023 EDNY 190950Z 24003KT 200V310 CAVOK 24/14 Q1023 EDNY 190920Z 21003KT 140V270 CAVOK 23/14 Q1023 EDNY 190850Z 26003KT 210V010 CAVOK 22/13 Q1023 EDNY 190820Z 24003KT 190V280 CAVOK 21/13 Q1023 EDNY 190750Z VRB02KT CAVOK 19/12 Q1023 EDNY 190720Z VRB01KT CAVOK 19/12 Q1023 EDNY 190650Z VRB02KT CAVOK 18/12 Q1023 EDNY 190620Z VRB03KT CAVOK 17/12 Q1023 EDNY 190550Z 00000KT CAVOK 16/11 Q1023 EDNY 190520Z VRB02KT CAVOK 14/11 Q1022 EDNY 190450Z VRB02KT CAVOK 13/10 Q1022 EDNY 190420Z VRB02KT CAVOK 13/10 Q1022 EDNY 190350Z VRB04KT CAVOK 13/10 Q1022 EDNY 190320Z AUTO 03003KT 9999 NCD 13/10 Q1022 EDNY 190250Z AUTO 01002KT 9999 NCD 13/11 Q1021 EDNY 190220Z AUTO 04003KT 9999 NCD 13/10 Q1021 EDNY 190150Z AUTO 04004KT 9999 NCD 14/10 Q1021 EDNY 190120Z AUTO 03004KT 9999 NCD 14/10 Q1021 EDNY 190050Z AUTO 03004KT 9999 NCD 14/11 Q1021 EDNY 190020Z AUTO 03005KT 9999 NCD 16/10 Q1021 EDNY 182350Z AUTO 02005KT 9999 NCD 17/10 Q1021 EDNY 182320Z AUTO 03004KT 350V050 9999 NCD 17/10 Q1021 EDNY 182250Z AUTO 05005KT 9999 NCD 18/10 Q1021 EDNY 182220Z AUTO 02005KT 360V060 9999 NCD 19/10 Q1021 EDNY 182150Z AUTO 02005KT 9999 NCD 19/10 Q1021 EDNY 182120Z AUTO 01007KT 9999 NCD 20/11 Q1021 EDNY 182050Z AUTO 03007KT 9999 NCD 21/11 Q1021 EDNY 182020Z AUTO 03010KT 9999 NCD 21/11 Q1021 EDNY 181950Z 02009KT CAVOK 22/11 Q1021 EDNY 181920Z 02008KT CAVOK 22/11 Q1021 EDNY 181850Z 03008KT CAVOK 23/11 Q1021 EDNY 181820Z 05009KT CAVOK 24/11 Q1020 EDNY 181750Z 05010KT CAVOK 25/11 Q1020 EDNY 181720Z 04011KT CAVOK 25/11 Q1020 EDNY 181650Z 04011KT CAVOK 26/11 Q1020 EDNY 181620Z 05009KT CAVOK 27/11 Q1020 EDNY 181550Z 03007KT CAVOK 27/10 Q1020 EDNY 181520Z 06008KT CAVOK 27/10 Q1020 EDNY 181450Z 05005KT 360V090 CAVOK 27/12 Q1021 EDNY 181420Z 02005KT 340V050 CAVOK 27/10 Q1021 EDNY 181350Z 04004KT 350V100 CAVOK 27/11 Q1021 EDNY 181320Z 02004KT 330V070 CAVOK 27/11 Q1021 EDNY 181250Z VRB05KT CAVOK 27/11 Q1021

METAR Messwerte "FRIEDRICHSHAFEN" EDNY

Zurück zur Übersicht

Ortsname
Ländercode / m ü. NN
Zeit Temperatur Taupunkt Rel.
Luftfeuchte
Luftdruck:
Altimeter
NN
Station
Wind in Beaufort
(Knoten)
Sichtweite
(Meter)
Wolken
(Meter über Grund)
Wettererscheinung
FRIEDRICHSHAFEN
DE 411
Fr 20.05. 02:20151388 %1024
1024
975
Uml 1 (2)>= 10000Leicht bewölkt (4300) 
FRIEDRICHSHAFEN
DE 411
Fr 20.05. 01:50141394 %1024
1024
975
Uml 1 (2)>= 10000  
FRIEDRICHSHAFEN
DE 411
Fr 20.05. 01:20141394 %1024
1024
975
Uml 1 (2)>= 10000  
FRIEDRICHSHAFEN
DE 411
Fr 20.05. 00:50151388 %1024
1024
975
Uml 1 (2)>= 10000  
FRIEDRICHSHAFEN
DE 411
Fr 20.05. 00:20151388 %1024
1024
975
Uml 1 (2)>= 10000Leicht bewölkt (4000) 
FRIEDRICHSHAFEN
DE 411
Do 19.05. 23:50161382 %1024
1024
975
NO 2 (3)
NNW - ONO
>= 10000Wolkig (4000) 
FRIEDRICHSHAFEN
DE 411
Do 19.05. 23:20161488 %1024
1024
975
Uml 1 (2)>= 10000Stark bewölkt (4000) 
FRIEDRICHSHAFEN
DE 411
Do 19.05. 22:50171482 %1024
1024
975
Uml 1 (1)>= 10000Wolkig (3700)
Leicht bewölkt (3000)
 
FRIEDRICHSHAFEN
DE 411
Do 19.05. 22:20181373 %1023
1023
974
Uml 1 (2)>= 10000Nicht signifikant 
FRIEDRICHSHAFEN
DE 411
Do 19.05. 21:50201468 %1023
1022
974
O 1 (2)>= 10000Nicht signifikant 
FRIEDRICHSHAFEN
DE 411
Do 19.05. 21:20201468 %1023
1022
974
ONO 2 (3)>= 10000Nicht signifikant 
FRIEDRICHSHAFEN
DE 411
Do 19.05. 20:50211464 %1023
1022
974
SSW 2 (3)
SSO - SW
>= 10000Nicht signifikant 
FRIEDRICHSHAFEN
DE 411
Do 19.05. 20:20221357 %1023
1022
974
S 2 (4)
SO - WSW
>= 10000Nicht signifikant 
FRIEDRICHSHAFEN
DE 411
Do 19.05. 19:50211464 %1022
1021
973
SW 2 (5)>= 10000Nicht signifikant 
FRIEDRICHSHAFEN
DE 411
Do 19.05. 19:20221357 %1022
1021
973
SW 2 (5)>= 10000Nicht signifikant 
FRIEDRICHSHAFEN
DE 411
Do 19.05. 18:50231250 %1022
1021
973
S 4 (13)>= 10000Nicht signifikant 
FRIEDRICHSHAFEN
DE 411
Do 19.05. 18:20231250 %1022
1021
973
SSW 4 (13)>= 10000Leicht bewölkt (1700) 
FRIEDRICHSHAFEN
DE 411
Do 19.05. 17:50241247 %1022
1021
973
SSW 4 (13)>= 10000Wolkig Cb (2400) 
FRIEDRICHSHAFEN
DE 411
Do 19.05. 17:20261551 %1022
1020
973
SSW 3 (8)>= 10000Nicht signifikant 
FRIEDRICHSHAFEN
DE 411
Do 19.05. 16:50281442 %1021
1019
972
SSW 3 (7)
S - W
>= 10000Nicht signifikant 
FRIEDRICHSHAFEN
DE 411
Do 19.05. 16:20291543 %1021
1019
972
WSW 2 (6)
SSW - W
>= 10000Nicht signifikant 
FRIEDRICHSHAFEN
DE 411
Do 19.05. 15:50291645 %1021
1019
972
SW 2 (5)
SSW - W
>= 10000Nicht signifikant 
FRIEDRICHSHAFEN
DE 411
Do 19.05. 15:20291543 %1021
1019
972
SSW 2 (4)
SSO - W
>= 10000Nicht signifikant 
FRIEDRICHSHAFEN
DE 411
Do 19.05. 14:50291543 %1021
1019
972
WSW 2 (4)
SSO - NNW
>= 10000Nicht signifikant 
FRIEDRICHSHAFEN
DE 411
Do 19.05. 14:20281442 %1022
1020
973
WSW 2 (4)
SW - WNW
>= 10000Nicht signifikant 
FRIEDRICHSHAFEN
DE 411
Do 19.05. 13:50281442 %1022
1020
973
SSW 2 (3)
SO - W
>= 10000Nicht signifikant 
FRIEDRICHSHAFEN
DE 411
Do 19.05. 13:20271445 %1022
1020
973
Uml 1 (2)>= 10000Nicht signifikant 
FRIEDRICHSHAFEN
DE 411
Do 19.05. 12:50261551 %1023
1021
974
WSW 2 (3)
SSW - WNW
>= 10000Nicht signifikant 
FRIEDRICHSHAFEN
DE 411
Do 19.05. 12:20241454 %1023
1022
974
SW 2 (3)
SSO - W
>= 10000Nicht signifikant 
FRIEDRICHSHAFEN
DE 411
Do 19.05. 11:50241454 %1023
1022
974
WSW 2 (3)
SSW - NW
>= 10000Nicht signifikant 
FRIEDRICHSHAFEN
DE 411
Do 19.05. 11:20231457 %1023
1022
974
SSW 2 (3)
SO - W
>= 10000Nicht signifikant 
FRIEDRICHSHAFEN
DE 411
Do 19.05. 10:50221357 %1023
1022
974
W 2 (3)
SSW - N
>= 10000Nicht signifikant 
FRIEDRICHSHAFEN
DE 411
Do 19.05. 10:20211360 %1023
1022
974
WSW 2 (3)
S - W
>= 10000Nicht signifikant 
FRIEDRICHSHAFEN
DE 411
Do 19.05. 09:50191264 %1023
1022
974
Uml 1 (2)>= 10000Nicht signifikant 
FRIEDRICHSHAFEN
DE 411
Do 19.05. 09:20191264 %1023
1022
974
Uml 1 (1)>= 10000Nicht signifikant 
FRIEDRICHSHAFEN
DE 411
Do 19.05. 08:50181268 %1023
1023
974
Uml 1 (2)>= 10000Nicht signifikant 
FRIEDRICHSHAFEN
DE 411
Do 19.05. 08:20171272 %1023
1023
974
Uml 2 (3)>= 10000Nicht signifikant 
FRIEDRICHSHAFEN
DE 411
Do 19.05. 07:50161172 %1023
1023
974
Windstill>= 10000Nicht signifikant 
FRIEDRICHSHAFEN
DE 411
Do 19.05. 07:20141182 %1022
1022
973
Uml 1 (2)>= 10000Nicht signifikant 
FRIEDRICHSHAFEN
DE 411
Do 19.05. 06:50131082 %1022
1022
973
Uml 1 (2)>= 10000Nicht signifikant 
FRIEDRICHSHAFEN
DE 411
Do 19.05. 06:20131082 %1022
1022
973
Uml 1 (2)>= 10000Nicht signifikant 
FRIEDRICHSHAFEN
DE 411
Do 19.05. 05:50131082 %1022
1022
973
Uml 2 (4)>= 10000Nicht signifikant 
FRIEDRICHSHAFEN
DE 411
Do 19.05. 05:20131082 %1022
1022
973
NNO 2 (3)>= 10000  
FRIEDRICHSHAFEN
DE 411
Do 19.05. 04:50131188 %1021
1021
972
N 1 (2)>= 10000  
FRIEDRICHSHAFEN
DE 411
Do 19.05. 04:20131082 %1021
1021
972
NO 2 (3)>= 10000  
FRIEDRICHSHAFEN
DE 411
Do 19.05. 03:50141077 %1021
1021
972
NO 2 (4)>= 10000  
FRIEDRICHSHAFEN
DE 411
Do 19.05. 03:20141077 %1021
1021
972
NNO 2 (4)>= 10000  
FRIEDRICHSHAFEN
DE 411
Do 19.05. 02:50141182 %1021
1021
972
NNO 2 (4)>= 10000  
FRIEDRICHSHAFEN
DE 411
Do 19.05. 02:20161068 %1021
1021
972
NNO 2 (5)>= 10000  
FRIEDRICHSHAFEN
DE 411
Do 19.05. 01:50171063 %1021
1021
972
NNO 2 (5)>= 10000  
FRIEDRICHSHAFEN
DE 411
Do 19.05. 01:20171063 %1021
1021
972
NNO 2 (4)
N - NO
>= 10000  
FRIEDRICHSHAFEN
DE 411
Do 19.05. 00:50181059 %1021
1021
972
NO 2 (5)>= 10000  
FRIEDRICHSHAFEN
DE 411
Do 19.05. 00:20191056 %1021
1020
972
NNO 2 (5)
N - ONO
>= 10000  
FRIEDRICHSHAFEN
DE 411
Mi 18.05. 23:50191056 %1021
1020
972
NNO 2 (5)>= 10000  
FRIEDRICHSHAFEN
DE 411
Mi 18.05. 23:20201156 %1021
1020
972
N 3 (7)>= 10000  
FRIEDRICHSHAFEN
DE 411
Mi 18.05. 22:50211153 %1021
1020
972
NNO 3 (7)>= 10000  
FRIEDRICHSHAFEN
DE 411
Mi 18.05. 22:20211153 %1021
1020
972
NNO 3 (10)>= 10000  
FRIEDRICHSHAFEN
DE 411
Mi 18.05. 21:50221150 %1021
1020
972
NNO 3 (9)>= 10000Nicht signifikant 
FRIEDRICHSHAFEN
DE 411
Mi 18.05. 21:20221150 %1021
1020
972
NNO 3 (8)>= 10000Nicht signifikant 
FRIEDRICHSHAFEN
DE 411
Mi 18.05. 20:50231147 %1021
1020
972
NNO 3 (8)>= 10000Nicht signifikant 
FRIEDRICHSHAFEN
DE 411
Mi 18.05. 20:20241144 %1020
1019
971
NO 3 (9)>= 10000Nicht signifikant 
FRIEDRICHSHAFEN
DE 411
Mi 18.05. 19:50251141 %1020
1018
971
NO 3 (10)>= 10000Nicht signifikant 
FRIEDRICHSHAFEN
DE 411
Mi 18.05. 19:20251141 %1020
1018
971
NO 4 (11)>= 10000Nicht signifikant 
FRIEDRICHSHAFEN
DE 411
Mi 18.05. 18:50261139 %1020
1018
971
NO 4 (11)>= 10000Nicht signifikant 
FRIEDRICHSHAFEN
DE 411
Mi 18.05. 18:20271137 %1020
1018
971
NO 3 (9)>= 10000Nicht signifikant 
FRIEDRICHSHAFEN
DE 411
Mi 18.05. 17:50271034 %1020
1018
971
NNO 3 (7)>= 10000Nicht signifikant 
FRIEDRICHSHAFEN
DE 411
Mi 18.05. 17:20271034 %1020
1018
971
ONO 3 (8)>= 10000Nicht signifikant 
FRIEDRICHSHAFEN
DE 411
Mi 18.05. 16:50271239 %1021
1019
972
NO 2 (5)
N - O
>= 10000Nicht signifikant 
FRIEDRICHSHAFEN
DE 411
Mi 18.05. 16:20271034 %1021
1019
972
NNO 2 (5)
NNW - NO
>= 10000Nicht signifikant 
FRIEDRICHSHAFEN
DE 411
Mi 18.05. 15:50271137 %1021
1019
972
NO 2 (4)
N - O
>= 10000Nicht signifikant 
FRIEDRICHSHAFEN
DE 411
Mi 18.05. 15:20271137 %1021
1019
972
NNO 2 (4)
NNW - ONO
>= 10000Nicht signifikant 
FRIEDRICHSHAFEN
DE 411
Mi 18.05. 14:50271137 %1021
1019
972
Uml 2 (5)>= 10000Nicht signifikant 

Altimeter: Einstellung am Altimeter (Höhenmesser), die Höhe 0 muss auf diesen Luftdruckwert zeigen, damit das Gerät die Stationshöhe richtig anzeigt.

NN: Luftdruck reduziert auf "Normal Null", auf Meereshöhe, dieser von der Temperatur abhängige Wert wird bisweilen unkorrekt einfach als "Luftdruck" bezeichnet. Eigentlich nur eine fiktive Größe, die es erlaubt, Stationen auf unterschiedlichen Höhen miteinander zu vergleichen.

Station: Realer Luftdruck an der Station.